Time;durP1;ratioP1;P1;durP2;ratioP2;P2;SDS_P1;SDS_P2;PMS_P1;PMS_P2;Temp;Humidity;BMP_temperature;BMP_pressure;BME280_temperature;BME280_humidity;BME280_pressure;Samples;Min_cycle;Max_cycle;Signal;HPM_P1;HPM_P2
2022/05/09 00:01:42;;;;;;;7.45;2.20;;;12.30;72.80;;;;;;4957277;28;20058;-85
2022/05/09 00:04:19;;;;;;;9.50;2.83;;;12.30;72.80;;;;;;4955520;29;20034;-86
2022/05/09 00:06:49;;;;;;;6.85;2.10;;;12.20;73.30;;;;;;4956405;28;20027;-86
2022/05/09 00:09:18;;;;;;;7.15;2.60;;;12.20;73.50;;;;;;4974452;28;20031;-85
2022/05/09 00:11:46;;;;;;;5.38;1.98;;;12.10;73.60;;;;;;4974285;28;20388;-86
2022/05/09 00:14:17;;;;;;;9.18;2.75;;;12.10;73.60;;;;;;4975073;28;20042;-85
2022/05/09 00:16:46;;;;;;;5.70;2.05;;;12.10;73.80;;;;;;4974264;28;20041;-87
2022/05/09 00:19:21;;;;;;;7.32;2.30;;;12.00;74.10;;;;;;4974241;28;20078;-85
2022/05/09 00:21:49;;;;;;;6.63;2.20;;;12.10;74.10;;;;;;4974371;28;20023;-86
2022/05/09 00:24:19;;;;;;;7.25;2.40;;;12.10;74.10;;;;;;4974795;28;20031;-86
2022/05/09 00:26:55;;;;;;;9.75;2.50;;;12.00;74.40;;;;;;4975351;28;20027;-86
2022/05/09 00:29:27;;;;;;;10.38;2.80;;;12.00;74.70;;;;;;4974727;28;20430;-86
2022/05/09 00:32:03;;;;;;;8.95;2.92;;;11.90;74.80;;;;;;4978134;28;20081;-86
2022/05/09 00:34:33;;;;;;;10.13;3.00;;;11.90;75.10;;;;;;4993561;28;20038;-86
2022/05/09 00:37:06;;;;;;;6.60;2.33;;;11.90;75.20;;;;;;4996646;28;20094;-85
2022/05/09 00:39:35;;;;;;;10.65;2.50;;;11.80;75.30;;;;;;4996541;28;20061;-84
2022/05/09 00:42:29;;;;;;;6.85;2.17;;;11.80;75.30;;;;;;4979646;28;20039;-85
2022/05/09 00:44:58;;;;;;;10.30;2.80;;;11.80;75.50;;;;;;4976075;28;20050;-82
2022/05/09 00:47:41;;;;;;;9.40;2.95;;;11.70;75.90;;;;;;4958365;28;20034;-86
2022/05/09 00:50:10;;;;;;;7.28;2.13;;;11.70;76.00;;;;;;4973838;28;20427;-86
2022/05/09 00:52:53;;;;;;;6.70;2.58;;;11.80;76.00;;;;;;4974172;28;20419;-86
2022/05/09 00:55:49;;;;;;;7.88;2.67;;;11.70;76.00;;;;;;4974187;28;20364;-86
2022/05/09 00:58:46;;;;;;;7.85;2.55;;;11.70;76.40;;;;;;4936633;29;20034;-86
2022/05/09 01:01:16;;;;;;;11.02;2.45;;;11.60;76.50;;;;;;4935336;29;20091;-86
2022/05/09 01:03:53;;;;;;;5.65;2.03;;;11.60;76.40;;;;;;4934825;29;20043;-85
2022/05/09 01:06:24;;;;;;;7.18;2.50;;;11.60;76.60;;;;;;4937928;28;20119;-86
2022/05/09 01:08:58;;;;;;;8.20;2.22;;;11.60;76.70;;;;;;4943746;28;20122;-87
2022/05/09 01:11:31;;;;;;;7.10;2.65;;;11.60;76.80;;;;;;4974121;28;20039;-86
2022/05/09 01:14:21;;;;;;;9.15;2.25;;;11.60;76.80;;;;;;4973320;28;20027;-86
2022/05/09 01:16:49;;;;;;;8.43;2.67;;;11.60;77.00;;;;;;4965455;28;20126;-85
2022/05/09 01:19:37;;;;;;;5.78;2.30;;;11.50;76.90;;;;;;4962258;28;20081;-86
2022/05/09 01:22:15;;;;;;;7.57;2.65;;;11.50;77.30;;;;;;4976622;28;20026;-86
2022/05/09 01:24:46;;;;;;;7.93;2.55;;;11.50;77.30;;;;;;4976819;28;20030;-86
2022/05/09 01:27:23;;;;;;;6.72;2.50;;;11.40;77.50;;;;;;4960061;28;20037;-86
2022/05/09 01:30:15;;;;;;;9.68;2.33;;;11.40;77.70;;;;;;4973670;28;20078;-86
2022/05/09 01:33:05;;;;;;;8.35;3.10;;;11.30;78.00;;;;;;4957342;28;20049;-86
2022/05/09 01:35:54;;;;;;;9.55;2.72;;;11.30;78.20;;;;;;4973917;28;20435;-85
2022/05/09 01:38:29;;;;;;;4.90;2.38;;;11.30;78.40;;;;;;4973584;28;20070;-86
2022/05/09 01:43:49;;;;;;;7.15;2.58;;;11.20;78.50;;;;;;4971571;28;20027;-85
2022/05/09 01:46:25;;;;;;;8.35;2.92;;;11.20;78.60;;;;;;4975301;28;20379;-85
2022/05/09 01:51:40;;;;;;;10.05;3.00;;;11.10;79.10;;;;;;4995419;28;20069;-85
2022/05/09 01:54:16;;;;;;;7.60;2.90;;;11.10;79.30;;;;;;4980358;28;20062;-86
2022/05/09 01:56:49;;;;;;;7.68;3.13;;;11.10;79.40;;;;;;4980504;28;20018;-86
2022/05/09 01:59:23;;;;;;;8.27;2.90;;;11.00;79.80;;;;;;4980235;28;20042;-85
2022/05/09 02:01:58;;;;;;;6.65;2.65;;;11.00;79.70;;;;;;4965193;28;20072;-86
2022/05/09 02:04:34;;;;;;;7.40;2.92;;;11.00;79.80;;;;;;4981628;28;20061;-86
2022/05/09 02:07:03;;;;;;;10.30;3.15;;;11.00;79.80;;;;;;4965130;28;20031;-86
2022/05/09 02:09:44;;;;;;;6.22;2.60;;;11.00;80.00;;;;;;4990376;28;20132;-85
2022/05/09 02:12:29;;;;;;;9.32;2.95;;;11.00;80.00;;;;;;5014374;28;20062;-85
2022/05/09 02:15:08;;;;;;;5.35;2.40;;;11.00;80.20;;;;;;5004177;28;20065;-85
2022/05/09 02:17:36;;;;;;;8.10;3.10;;;11.00;80.10;;;;;;5003668;28;20007;-87
2022/05/09 02:20:05;;;;;;;7.10;2.83;;;11.00;80.20;;;;;;4992888;28;20086;-86
2022/05/09 02:22:37;;;;;;;10.48;3.15;;;11.00;80.20;;;;;;4979101;28;20478;-86
2022/05/09 02:25:26;;;;;;;;;;;11.00;80.20;;;;;;4977674;28;20027;-86
2022/05/09 02:28:00;;;;;;;9.18;3.03;;;10.90;80.50;;;;;;4977486;28;19993;-85
2022/05/09 02:30:26;;;;;;;6.40;2.88;;;10.90;80.50;;;;;;4961856;28;20030;-85
2022/05/09 02:32:52;;;;;;;8.18;3.00;;;10.80;80.50;;;;;;4976127;28;20042;-85
2022/05/09 02:35:20;;;;;;;6.75;2.83;;;10.90;80.60;;;;;;4960048;28;20039;-86
2022/05/09 02:37:46;;;;;;;7.97;2.75;;;10.90;80.90;;;;;;4976231;28;20031;-86
2022/05/09 02:40:17;;;;;;;9.07;2.53;;;10.80;80.90;;;;;;4978752;28;20077;-86
2022/05/09 02:42:43;;;;;;;7.55;3.20;;;10.80;80.90;;;;;;4979366;28;20065;-86
2022/05/09 02:45:10;;;;;;;8.55;2.80;;;10.80;81.00;;;;;;4979306;28;20023;-86
2022/05/09 02:47:43;;;;;;;9.65;3.20;;;10.80;81.00;;;;;;4979498;28;20022;-86
2022/05/09 02:50:10;;;;;;;10.75;3.17;;;10.90;81.00;;;;;;4978846;28;20057;-86
2022/05/09 02:52:37;;;;;;;10.10;3.00;;;10.80;81.00;;;;;;4979284;28;20574;-86
2022/05/09 02:55:10;;;;;;;8.80;3.20;;;10.70;81.10;;;;;;4963190;28;20030;-86
2022/05/09 02:57:37;;;;;;;6.50;2.88;;;10.80;81.30;;;;;;4979348;28;20033;-86
2022/05/09 03:00:06;;;;;;;8.82;3.25;;;10.70;81.20;;;;;;4978903;28;20397;-85
2022/05/09 03:02:35;;;;;;;7.35;2.63;;;10.70;81.20;;;;;;4996090;28;20018;-86
2022/05/09 03:05:03;;;;;;;8.75;3.40;;;10.70;81.30;;;;;;4978403;28;20145;-85
2022/05/09 03:07:39;;;;;;;10.45;3.42;;;10.70;81.40;;;;;;4979047;28;20029;-86
2022/05/09 03:10:07;;;;;;;9.40;3.20;;;10.70;81.40;;;;;;4995541;28;20109;-86
2022/05/09 03:12:43;;;;;;;10.73;3.60;;;10.70;81.70;;;;;;4994857;28;20038;-86
2022/05/09 03:15:09;;;;;;;8.68;3.25;;;10.60;82.00;;;;;;4978380;28;20018;-86
2022/05/09 03:17:45;;;;;;;11.77;3.60;;;10.60;81.80;;;;;;4978871;28;20030;-86
2022/05/09 03:20:21;;;;;;;7.35;3.13;;;10.60;81.90;;;;;;4974608;28;20046;-86
2022/05/09 03:22:47;;;;;;;6.88;3.00;;;10.50;81.90;;;;;;4975293;28;20034;-86
2022/05/09 03:25:17;;;;;;;8.02;3.08;;;10.60;82.00;;;;;;4959161;28;20023;-86
2022/05/09 03:27:43;;;;;;;9.00;3.30;;;10.60;82.00;;;;;;4975360;28;20054;-85
2022/05/09 03:30:16;;;;;;;6.90;3.20;;;10.60;82.70;;;;;;4990986;28;20027;-86
2022/05/09 03:32:47;;;;;;;8.50;3.17;;;10.50;82.20;;;;;;4971883;28;20042;-86
2022/05/09 03:35:18;;;;;;;12.15;3.70;;;10.50;82.30;;;;;;4971689;28;20555;-86
2022/05/09 03:37:43;;;;;;;10.48;3.08;;;10.40;82.40;;;;;;4972242;28;20388;-85
2022/05/09 03:40:12;;;;;;;6.80;2.85;;;10.40;82.50;;;;;;4971560;28;20020;-86
2022/05/09 03:42:55;;;;;;;;;;;;;;;;;;;;;
2022/05/09 03:45:24;;;;;;;6.03;2.80;;;10.40;82.70;;;;;;4976345;28;20039;-85
2022/05/09 03:47:50;;;;;;;7.25;3.10;;;10.40;82.70;;;;;;4975348;28;20026;-86
2022/05/09 03:50:23;;;;;;;7.30;3.00;;;10.40;82.70;;;;;;4982740;28;20003;-86
2022/05/09 03:52:49;;;;;;;6.78;2.88;;;10.40;82.80;;;;;;4998984;28;20030;-87
2022/05/09 03:55:14;;;;;;;7.43;3.17;;;10.30;82.80;;;;;;4998985;28;20035;-87
2022/05/09 03:57:54;;;;;;;8.68;3.53;;;10.40;82.90;;;;;;4999159;28;20023;-85
2022/05/09 04:00:29;;;;;;;7.50;3.03;;;10.40;82.90;;;;;;4997851;28;20014;-86
2022/05/09 04:02:55;;;;;;;6.65;2.90;;;10.30;83.00;;;;;;4970943;28;20035;-86
2022/05/09 04:05:33;;;;;;;;;;;;;;;;;;;;;
2022/05/09 04:08:02;;;;;;;8.60;3.15;;;10.30;83.10;;;;;;4976078;28;20486;-85
2022/05/09 04:10:36;;;;;;;9.23;3.08;;;10.20;83.10;;;;;;4974251;28;20130;-85
2022/05/09 04:13:07;;;;;;;9.75;3.13;;;10.30;83.20;;;;;;4974133;28;20127;-86
2022/05/09 04:18:26;;;;;;;7.67;3.20;;;10.30;83.40;;;;;;4975360;28;20042;-86
2022/05/09 04:21:02;;;;;;;5.93;3.35;;;10.20;83.40;;;;;;4973921;28;20045;-86
2022/05/09 04:23:28;;;;;;;8.57;3.47;;;10.20;83.50;;;;;;4964593;28;20395;-86
2022/05/09 04:25:56;;;;;;;9.20;2.90;;;10.20;83.50;;;;;;4954639;29;20468;-86
2022/05/09 04:28:27;;;;;;;7.32;3.50;;;10.20;83.50;;;;;;4938742;29;20059;-85
2022/05/09 04:30:56;;;;;;;11.10;3.60;;;10.20;83.70;;;;;;4955039;29;20050;-86
2022/05/09 04:33:25;;;;;;;8.20;3.30;;;10.20;83.70;;;;;;4955737;28;20043;-86
2022/05/09 04:36:07;;;;;;;8.98;3.70;;;10.20;84.40;;;;;;4954541;29;20031;-86
2022/05/09 04:38:34;;;;;;;9.00;3.40;;;10.20;83.80;;;;;;4954608;29;20384;-86
2022/05/09 04:41:08;;;;;;;9.40;3.40;;;10.20;83.80;;;;;;4954467;29;20030;-86
2022/05/09 04:43:40;;;;;;;9.02;3.15;;;10.20;83.90;;;;;;4955634;28;20145;-86
2022/05/09 04:46:11;;;;;;;6.70;3.17;;;10.20;84.00;;;;;;4939420;29;20031;-86
2022/05/09 04:48:41;;;;;;;9.60;3.78;;;10.20;84.00;;;;;;4954768;29;20024;-86
2022/05/09 04:51:10;;;;;;;12.25;3.35;;;10.20;84.20;;;;;;4956043;28;20464;-86
2022/05/09 04:53:51;;;;;;;8.13;3.63;;;10.20;84.30;;;;;;4938796;29;20070;-86
2022/05/09 04:56:18;;;;;;;12.00;3.30;;;10.20;84.40;;;;;;4937473;29;20032;-86
2022/05/09 04:58:44;;;;;;;7.25;3.40;;;10.30;84.40;;;;;;4935424;29;20083;-86
2022/05/09 05:01:35;;;;;;;;;;;;;;;;;;;;;
2022/05/09 05:04:05;;;;;;;;;;;10.30;84.60;;;;;;4935995;29;20038;-86
2022/05/09 05:07:04;;;;;;;;;;;;;;;;;;;;;
2022/05/09 05:12:31;;;;;;;;;;;;;;;;;;;;;
2022/05/09 05:15:06;;;;;;;12.05;4.43;;;10.40;84.70;;;;;;4955495;29;20519;-88
2022/05/09 05:17:36;;;;;;;9.73;4.43;;;10.40;84.70;;;;;;4971668;28;20031;-87
2022/05/09 05:20:13;;;;;;;11.07;3.97;;;10.50;84.80;;;;;;4974100;28;20039;-87
2022/05/09 05:22:57;;;;;;;9.15;4.05;;;10.40;84.80;;;;;;4974553;28;20395;-87
2022/05/09 05:25:35;;;;;;;10.95;3.85;;;10.50;85.00;;;;;;4974889;28;20064;-87
2022/05/09 05:28:08;;;;;;;10.93;4.40;;;10.50;84.90;;;;;;4974928;28;20019;-89
2022/05/09 05:30:58;;;;;;;9.73;4.07;;;10.50;84.70;;;;;;5001595;28;20011;-89
2022/05/09 05:33:44;;;;;;;10.05;4.25;;;10.60;84.50;;;;;;5001268;28;20082;-87
2022/05/09 05:36:24;;;;;;;12.15;4.32;;;10.60;84.50;;;;;;5000450;28;20019;-87
2022/05/09 05:39:17;;;;;;;;;;;;;;;;;;;;;
2022/05/09 05:41:56;;;;;;;10.20;4.03;;;10.70;84.60;;;;;;4959371;29;20110;-87
2022/05/09 05:44:53;;;;;;;9.32;4.18;;;10.70;84.60;;;;;;4943259;29;20035;-88
2022/05/09 05:47:23;;;;;;;9.20;3.60;;;10.70;84.70;;;;;;4959201;28;20440;-88
2022/05/09 05:49:57;;;;;;;11.93;4.28;;;10.80;84.50;;;;;;4962098;28;20050;-88
2022/05/09 05:52:25;;;;;;;9.40;4.05;;;10.80;84.40;;;;;;4958351;29;20074;-89
2022/05/09 05:55:22;;;;;;;13.38;4.82;;;10.80;84.40;;;;;;4958878;29;20468;-88
2022/05/09 05:57:53;;;;;;;8.63;3.85;;;10.80;84.40;;;;;;4952707;29;20067;-88
2022/05/09 06:00:27;;;;;;;9.05;3.60;;;10.90;84.30;;;;;;4971916;28;20105;-87
2022/05/09 06:03:08;;;;;;;12.15;5.30;;;10.90;84.20;;;;;;4977799;28;20130;-87
2022/05/09 06:05:37;;;;;;;;;;;11.00;84.20;;;;;;4977705;28;20030;-89
2022/05/09 06:08:16;;;;;;;10.48;4.35;;;11.00;84.00;;;;;;4976931;28;19907;-86
2022/05/09 06:10:42;;;;;;;12.70;4.95;;;11.00;84.00;;;;;;4960918;28;20034;-85
2022/05/09 06:13:11;;;;;;;11.02;4.30;;;11.10;84.00;;;;;;4976632;28;20070;-85
2022/05/09 06:15:42;;;;;;;8.23;4.43;;;11.10;84.00;;;;;;4976288;28;20525;-85
2022/05/09 06:18:14;;;;;;;10.80;4.00;;;11.20;83.90;;;;;;4977101;28;20038;-84
2022/05/09 06:20:43;;;;;;;10.27;4.25;;;11.20;83.80;;;;;;4987490;28;20057;-84
2022/05/09 06:23:12;;;;;;;8.10;3.50;;;11.20;83.80;;;;;;4979687;28;20122;-84
2022/05/09 06:25:38;;;;;;;10.52;3.90;;;11.40;83.80;;;;;;4979482;28;20482;-85
2022/05/09 06:28:05;;;;;;;10.40;3.95;;;11.40;83.70;;;;;;4997309;28;20378;-85
2022/05/09 06:30:42;;;;;;;8.27;3.38;;;11.50;83.70;;;;;;4979194;28;20490;-85
2022/05/09 06:33:08;;;;;;;10.52;4.15;;;11.50;83.60;;;;;;4979210;28;20046;-84
2022/05/09 06:35:41;;;;;;;14.35;4.35;;;11.60;83.50;;;;;;4996733;28;20023;-85
2022/05/09 06:38:07;;;;;;;7.82;3.95;;;11.60;84.00;;;;;;4994918;28;20048;-84
2022/05/09 06:40:35;;;;;;;10.77;3.97;;;11.60;83.90;;;;;;4979145;28;20457;-84
2022/05/09 06:43:03;;;;;;;11.63;4.13;;;11.70;83.30;;;;;;4979269;28;20081;-84
2022/05/09 06:45:32;;;;;;;11.25;4.13;;;11.70;83.30;;;;;;4979441;28;20014;-85
2022/05/09 06:48:05;;;;;;;7.10;3.30;;;11.80;83.50;;;;;;4979334;28;20427;-86
2022/05/09 06:50:49;;;;;;;8.15;3.50;;;11.90;83.50;;;;;;4979130;28;20046;-86
2022/05/09 06:53:15;;;;;;;7.18;3.60;;;11.90;83.30;;;;;;4979350;28;20389;-85
2022/05/09 06:55:53;;;;;;;12.57;4.28;;;12.00;83.20;;;;;;4979363;28;20022;-86
2022/05/09 06:58:22;;;;;;;11.20;4.32;;;12.10;83.10;;;;;;4963004;28;20038;-85
2022/05/09 07:00:52;;;;;;;11.38;3.75;;;12.20;83.00;;;;;;4979241;28;20022;-86
2022/05/09 07:03:21;;;;;;;10.98;3.95;;;12.30;82.90;;;;;;4997638;28;20060;-86
2022/05/09 07:06:00;;;;;;;11.77;4.13;;;12.40;82.80;;;;;;5009529;28;20046;-85
2022/05/09 07:08:34;;;;;;;10.27;3.53;;;12.50;82.60;;;;;;5002882;28;20069;-86
2022/05/09 07:11:20;;;;;;;11.40;3.65;;;12.60;82.40;;;;;;4983540;28;20018;-84
2022/05/09 07:13:46;;;;;;;9.25;3.67;;;12.70;82.30;;;;;;4992158;28;20047;-84
2022/05/09 07:16:13;;;;;;;8.70;2.88;;;12.80;82.20;;;;;;4990696;28;20022;-83
2022/05/09 07:18:46;;;;;;;8.45;3.28;;;12.80;82.10;;;;;;4977861;28;20034;-85
2022/05/09 07:21:12;;;;;;;9.05;3.70;;;12.90;82.00;;;;;;4974275;28;20049;-87
2022/05/09 07:23:57;;;;;;;9.77;4.05;;;13.00;81.80;;;;;;4976621;28;20034;-87
2022/05/09 07:26:25;;;;;;;10.38;4.18;;;13.10;81.60;;;;;;4975050;28;20027;-86
2022/05/09 07:29:06;;;;;;;8.55;4.03;;;13.20;81.40;;;;;;4974884;28;20156;-85
2022/05/09 07:31:42;;;;;;;8.55;3.40;;;13.30;81.40;;;;;;4975027;28;20035;-87
2022/05/09 07:34:11;;;;;;;10.73;3.88;;;13.40;81.20;;;;;;4974973;28;20627;-86
2022/05/09 07:36:39;;;;;;;6.93;3.60;;;13.50;81.20;;;;;;4976677;28;20031;-88
2022/05/09 07:39:05;;;;;;;10.23;4.45;;;13.60;80.90;;;;;;4974819;28;20081;-86
2022/05/09 07:41:33;;;;;;;8.88;4.00;;;13.70;80.90;;;;;;4977935;28;20034;-88
2022/05/09 07:44:32;;;;;;;;;;;;;;;;;;;;;
2022/05/09 07:46:59;;;;;;;9.43;3.55;;;13.80;80.50;;;;;;4990968;28;20041;-86
2022/05/09 07:49:47;;;;;;;10.40;4.20;;;13.90;80.40;;;;;;4977782;28;20530;-86
2022/05/09 07:52:13;;;;;;;9.60;4.15;;;14.00;80.30;;;;;;4993588;28;20080;-86
2022/05/09 07:54:51;;;;;;;9.15;4.05;;;14.00;80.00;;;;;;4977451;28;20122;-85
2022/05/09 07:57:24;;;;;;;6.97;3.40;;;14.10;80.00;;;;;;4978158;28;20113;-85
2022/05/09 08:00:02;;;;;;;;;;;;;;;;;;;;;
2022/05/09 08:02:38;;;;;;;7.28;3.30;;;14.30;80.10;;;;;;4994302;28;20027;-86
2022/05/09 08:05:09;;;;;;;7.43;3.10;;;14.40;80.10;;;;;;4994759;28;20042;-85
2022/05/09 08:07:45;;;;;;;9.52;4.20;;;14.50;80.60;;;;;;4977833;28;20029;-88
2022/05/09 08:10:40;;;;;;;6.80;3.28;;;14.60;79.50;;;;;;4977973;28;20038;-85
2022/05/09 08:13:15;;;;;;;8.15;3.13;;;14.70;79.50;;;;;;4961354;28;20050;-85
2022/05/09 08:15:45;;;;;;;9.40;4.22;;;14.80;79.30;;;;;;4977528;28;20454;-85
2022/05/09 08:18:13;;;;;;;6.97;3.45;;;14.90;78.50;;;;;;4977253;28;20035;-84
2022/05/09 08:20:46;;;;;;;7.45;3.03;;;15.00;78.30;;;;;;4994479;28;20057;-85
2022/05/09 08:23:18;;;;;;;7.50;3.25;;;15.00;78.30;;;;;;4977388;28;20096;-84
2022/05/09 08:25:58;;;;;;;8.38;3.10;;;15.10;78.00;;;;;;4976910;28;20076;-84
2022/05/09 08:28:27;;;;;;;6.50;3.10;;;15.20;78.00;;;;;;4977280;28;20022;-85
2022/05/09 08:31:03;;;;;;;6.53;3.15;;;15.30;78.00;;;;;;4977250;28;20113;-85
2022/05/09 08:33:39;;;;;;;;;;;;;;;;;;;;;
2022/05/09 08:36:11;;;;;;;8.00;3.78;;;15.50;77.00;;;;;;4995323;28;20026;-84
2022/05/09 08:38:50;;;;;;;10.20;3.67;;;15.60;76.30;;;;;;4977770;28;20073;-85
2022/05/09 08:41:34;;;;;;;;;;;;;;;;;;;;;
2022/05/09 08:44:27;;;;;;;6.18;2.88;;;15.70;75.90;;;;;;4996443;28;20463;-84
2022/05/09 08:47:31;;;;;;;7.28;3.25;;;15.70;75.90;;;;;;4996433;28;20037;-84
2022/05/09 08:50:23;;;;;;;7.30;2.78;;;15.90;75.60;;;;;;4967371;28;20042;-83
2022/05/09 08:54:01;;;;;;;8.40;3.53;;;16.00;75.60;;;;;;4997115;28;20030;-86
2022/05/09 08:57:16;;;;;;;6.55;2.47;;;16.10;75.60;;;;;;4936972;29;20047;-86
2022/05/09 09:00:03;;;;;;;4.25;2.35;;;16.20;75.80;;;;;;4931757;29;20100;-86
2022/05/09 09:03:09;;;;;;;3.83;2.17;;;16.30;75.90;;;;;;4928886;29;20398;-83
2022/05/09 09:05:44;;;;;;;7.18;2.90;;;16.40;75.80;;;;;;4926051;29;20024;-84
2022/05/09 09:08:52;;;;;;;6.68;2.78;;;16.40;74.80;;;;;;4902927;29;20024;-83
2022/05/09 09:11:56;;;;;;;4.95;2.30;;;16.50;74.50;;;;;;4915470;29;20028;-83
2022/05/09 09:14:36;;;;;;;7.18;2.45;;;16.60;74.60;;;;;;4943684;28;20125;-84
2022/05/09 09:17:35;;;;;;;5.43;2.35;;;16.70;74.50;;;;;;4992419;28;20121;-83
2022/05/09 09:20:35;;;;;;;5.15;2.30;;;16.90;74.30;;;;;;4975895;28;20058;-83
2022/05/09 09:23:31;;;;;;;5.23;2.40;;;16.90;74.20;;;;;;4994303;28;20467;-84
2022/05/09 09:26:36;;;;;;;5.07;2.50;;;17.00;73.80;;;;;;4976679;28;20497;-85
2022/05/09 09:29:19;;;;;;;4.55;1.92;;;17.10;73.20;;;;;;4994030;28;20030;-85
2022/05/09 09:31:54;;;;;;;6.10;2.60;;;17.20;73.30;;;;;;4977045;28;20041;-87
2022/05/09 09:35:07;;;;;;;9.80;3.00;;;17.20;73.00;;;;;;4996199;28;20026;-84
2022/05/09 09:37:50;;;;;;;6.68;2.90;;;17.40;69.70;;;;;;4981659;28;20121;-84
2022/05/09 09:40:18;;;;;;;7.93;2.20;;;17.40;70.10;;;;;;5000766;28;20029;-84
2022/05/09 09:42:44;;;;;;;4.40;2.33;;;17.50;70.50;;;;;;4985164;28;20027;-83
2022/05/09 09:45:35;;;;;;;;;;;;;;;;;;;;;
2022/05/09 09:48:21;;;;;;;6.72;2.67;;;17.60;70.40;;;;;;5006658;28;20077;-84
2022/05/09 09:51:04;;;;;;;4.15;2.00;;;17.70;70.10;;;;;;4985640;28;20094;-86
2022/05/09 09:53:57;;;;;;;4.10;1.90;;;17.80;68.60;;;;;;4983041;28;20084;-84
2022/05/09 09:56:31;;;;;;;2.95;1.63;;;17.90;68.50;;;;;;4982352;28;20037;-84
2022/05/09 09:59:23;;;;;;;2.38;1.42;;;17.90;68.90;;;;;;4984242;28;20029;-84
2022/05/09 10:02:25;;;;;;;3.60;1.40;;;18.00;69.10;;;;;;4995614;28;20529;-84
2022/05/09 10:07:53;;;;;;;4.35;2.25;;;18.20;68.70;;;;;;4994140;28;20113;-84
2022/05/09 10:10:27;;;;;;;6.13;2.72;;;18.20;67.90;;;;;;4976927;28;20026;-85
2022/05/09 10:13:22;;;;;;;5.13;2.28;;;18.30;67.30;;;;;;4977441;28;20030;-86
2022/05/09 10:16:25;;;;;;;;;;;;;;;;;;;;;
2022/05/09 10:19:34;;;;;;;4.63;1.85;;;18.30;66.90;;;;;;4974478;28;20052;-87
2022/05/09 10:25:15;;;;;;;3.78;1.40;;;18.50;67.70;;;;;;4997172;28;20065;-85
2022/05/09 10:27:54;;;;;;;;;;;;;;;;;;;;;
2022/05/09 10:30:22;;;;;;;2.55;1.35;;;18.60;67.20;;;;;;4996880;28;20382;-85
2022/05/09 10:33:14;;;;;;;;;;;;;;;;;;;;;
2022/05/09 10:36:08;;;;;;;5.82;1.67;;;18.70;67.00;;;;;;4997323;28;20028;-85
2022/05/09 10:39:21;;;;;;;3.05;1.60;;;18.80;67.00;;;;;;4980332;28;20031;-85
2022/05/09 10:42:10;;;;;;;4.75;2.13;;;18.90;67.10;;;;;;4973951;28;20041;-85
2022/05/09 10:44:55;;;;;;;3.15;1.45;;;18.90;66.60;;;;;;4984812;28;20033;-85
2022/05/09 10:51:17;;;;;;;4.13;1.50;;;19.00;66.20;;;;;;5020462;28;20084;-84
2022/05/09 10:54:33;;;;;;;4.55;1.67;;;19.10;65.80;;;;;;5002401;28;20069;-85
2022/05/09 10:57:14;;;;;;;3.50;1.60;;;19.20;66.30;;;;;;4981956;28;20057;-83
2022/05/09 11:00:05;;;;;;;3.65;1.38;;;19.20;66.50;;;;;;4980434;28;20117;-85
2022/05/09 11:02:43;;;;;;;4.05;1.65;;;19.30;66.80;;;;;;4966783;28;20219;-85
2022/05/09 11:05:14;;;;;;;4.30;2.03;;;19.40;66.60;;;;;;4978934;28;20034;-85
2022/05/09 11:08:10;;;;;;;4.10;2.05;;;19.50;66.50;;;;;;4963486;28;20031;-85
2022/05/09 11:11:18;;;;;;;;;;;;;;;;;;;;;
2022/05/09 11:17:12;;;;;;;;;;;;;;;;;;;;;
2022/05/09 11:20:24;;;;;;;4.30;1.60;;;19.80;64.90;;;;;;4996390;28;20026;-84
2022/05/09 11:23:08;;;;;;;;;;;19.80;64.90;;;;;;4936281;29;20062;-86
2022/05/09 11:26:28;;;;;;;;;;;;;;;;;;;;;
2022/05/09 11:29:35;;;;;;;3.50;1.73;;;19.80;64.80;;;;;;4962305;28;20064;-85
2022/05/09 11:32:41;;;;;;;4.85;1.75;;;19.90;64.90;;;;;;4994742;28;20038;-85
2022/05/09 11:35:41;;;;;;;2.85;1.50;;;19.90;65.00;;;;;;4995320;28;20089;-84
2022/05/09 11:38:19;;;;;;;5.20;2.38;;;20.00;65.20;;;;;;4977877;28;20033;-85
2022/05/09 11:41:17;;;;;;;5.72;1.80;;;20.10;64.70;;;;;;4978670;28;20057;-86
2022/05/09 11:43:46;;;;;;;4.53;1.60;;;20.10;64.60;;;;;;4978072;28;20034;-85
2022/05/09 11:46:40;;;;;;;3.50;1.40;;;20.20;64.70;;;;;;4978021;28;20459;-86
2022/05/09 11:50:01;;;;;;;4.93;1.90;;;20.30;64.60;;;;;;4977847;28;20046;-85
2022/05/09 11:56:05;;;;;;;5.70;2.20;;;20.40;64.60;;;;;;4995986;28;20054;-85
2022/05/09 11:58:50;;;;;;;3.95;1.75;;;20.40;64.20;;;;;;4961814;28;20039;-85
2022/05/09 12:01:16;;;;;;;4.00;2.00;;;20.50;64.40;;;;;;4994885;28;20026;-86
2022/05/09 12:03:50;;;;;;;4.60;2.00;;;20.60;64.30;;;;;;4978137;28;20471;-86
2022/05/09 12:06:56;;;;;;;6.85;2.25;;;20.70;64.10;;;;;;4977658;28;20459;-86
2022/05/09 12:10:15;;;;;;;3.30;2.35;;;20.80;63.40;;;;;;4992126;28;20554;-86
2022/05/09 12:12:54;;;;;;;3.78;2.10;;;20.90;63.40;;;;;;4995264;28;20030;-84
2022/05/09 12:15:33;;;;;;;;;;;;;;;;;;;;;
2022/05/09 12:18:12;;;;;;;;;;;;;;;;;;;;;
2022/05/09 12:20:47;;;;;;;4.78;2.03;;;21.10;63.80;;;;;;4994762;28;20054;-86
2022/05/09 12:24:01;;;;;;;3.95;2.05;;;21.10;63.70;;;;;;4993532;28;20158;-85
2022/05/09 12:26:48;;;;;;;;;;;;;;;;;;;;;
2022/05/09 12:29:27;;;;;;;3.85;1.83;;;21.20;63.50;;;;;;4995247;28;20045;-86
2022/05/09 12:32:46;;;;;;;4.13;1.73;;;21.20;63.20;;;;;;4993757;28;20022;-87
2022/05/09 12:35:21;;;;;;;3.80;1.83;;;21.30;63.00;;;;;;4993256;28;20125;-87
2022/05/09 12:38:02;;;;;;;4.38;1.98;;;21.40;62.90;;;;;;4977426;28;20030;-86
2022/05/09 12:40:45;;;;;;;;;;;;;;;;;;;;;
2022/05/09 12:46:17;;;;;;;4.13;2.10;;;21.50;63.20;;;;;;5015110;28;20018;-88
2022/05/09 12:48:51;;;;;;;3.15;1.67;;;21.60;63.20;;;;;;5001904;28;20082;-87
2022/05/09 12:51:49;;;;;;;3.08;1.90;;;21.60;63.10;;;;;;4985534;28;20105;-89
2022/05/09 12:54:39;;;;;;;6.22;2.28;;;21.70;63.10;;;;;;5017200;28;20054;-86
2022/05/09 12:57:44;;;;;;;;;;;;;;;;;;;;;
2022/05/09 13:03:17;;;;;;;;;;;21.90;62.80;;;;;;4994934;28;20073;-88
2022/05/09 13:09:08;;;;;;;;;;;;;;;;;;;;;
2022/05/09 13:11:49;;;;;;;5.60;1.85;;;21.90;62.50;;;;;;4978491;28;20027;-87
2022/05/09 13:14:55;;;;;;;4.53;2.00;;;22.00;62.20;;;;;;4959099;28;20126;-87
2022/05/09 13:17:58;;;;;;;6.22;2.10;;;22.10;62.10;;;;;;4976857;28;20026;-88
2022/05/09 13:21:12;;;;;;;3.83;1.90;;;22.10;62.00;;;;;;4973013;28;20038;-87
2022/05/09 13:37:00;;;;;;;;;;;;;;;;;;;;;
2022/05/09 13:40:34;;;;;;;8.00;4.22;;;22.20;60.90;;;;;;4993560;28;20113;-87
2022/05/09 13:43:08;;;;;;;5.38;3.10;;;22.30;59.90;;;;;;4993092;28;20019;-87
2022/05/09 13:45:37;;;;;;;8.45;2.83;;;22.30;60.20;;;;;;4992135;28;20085;-87
2022/05/09 13:48:28;;;;;;;;;;;;;;;;;;;;;
2022/05/09 13:51:09;;;;;;;4.82;2.47;;;22.30;60.10;;;;;;4998132;28;20029;-86
2022/05/09 13:53:53;;;;;;;7.55;2.58;;;22.40;59.20;;;;;;4979659;28;20393;-85
2022/05/09 13:56:25;;;;;;;3.78;1.83;;;22.40;59.30;;;;;;4979857;28;20051;-86
2022/05/09 13:59:10;;;;;;;4.38;2.08;;;22.40;59.60;;;;;;4980308;28;20479;-86
2022/05/09 14:02:17;;;;;;;4.28;2.00;;;22.40;59.80;;;;;;4979970;28;20031;-86
2022/05/09 14:05:03;;;;;;;3.97;1.98;;;22.40;60.00;;;;;;4983489;28;20035;-84
2022/05/09 14:07:51;;;;;;;5.47;1.90;;;22.40;60.10;;;;;;4979117;28;20038;-85
2022/05/09 14:10:49;;;;;;;;;;;;;;;;;;;;;
2022/05/09 14:14:16;;;;;;;4.47;1.75;;;22.50;60.30;;;;;;4997191;28;20045;-88
2022/05/09 14:17:07;;;;;;;4.05;2.10;;;22.60;60.30;;;;;;4979417;28;20041;-85
2022/05/09 14:19:40;;;;;;;2.78;1.55;;;22.60;60.00;;;;;;4989880;28;20022;-85
2022/05/09 14:22:33;;;;;;;4.25;1.90;;;22.70;59.90;;;;;;4979452;28;20483;-85
2022/05/09 14:31:37;;;;;;;;;;;;;;;;;;;;;
2022/05/09 14:37:54;;;;;;;;;;;;;;;;;;;;;
2022/05/09 14:41:36;;;;;;;4.22;2.13;;;22.80;59.30;;;;;;4999559;28;20094;-85
2022/05/09 14:44:41;;;;;;;4.07;1.67;;;22.80;59.00;;;;;;5002334;28;20030;-86
2022/05/09 14:47:33;;;;;;;;;;;;;;;;;;;;;
2022/05/09 14:50:39;;;;;;;4.90;2.60;;;22.80;59.10;;;;;;5015037;28;20042;-86
2022/05/09 14:54:01;;;;;;;4.13;2.33;;;22.90;59.10;;;;;;5019643;28;20293;-84
2022/05/09 15:03:48;;;;;;;3.60;2.28;;;22.90;58.20;;;;;;4950267;28;20067;-86
2022/05/09 15:06:47;;;;;;;;;;;;;;;;;;;;;
2022/05/09 15:09:46;;;;;;;2.85;2.00;;;23.00;58.50;;;;;;4973454;28;20043;-86
2022/05/09 15:12:42;;;;;;;4.10;2.50;;;23.00;58.60;;;;;;4985838;28;20025;-86
2022/05/09 15:15:11;;;;;;;5.45;2.38;;;23.00;58.30;;;;;;4978676;28;20038;-86
2022/05/09 15:17:50;;;;;;;4.18;2.40;;;23.10;58.30;;;;;;4962618;28;20054;-86
2022/05/09 15:20:49;;;;;;;3.10;2.35;;;23.20;58.10;;;;;;4978259;28;20022;-86
2022/05/09 15:23:37;;;;;;;5.30;2.47;;;23.20;57.80;;;;;;4964149;28;20051;-86
2022/05/09 15:29:32;;;;;;;5.63;2.80;;;23.20;58.00;;;;;;4995773;28;20026;-86
2022/05/09 15:32:08;;;;;;;;;;;;;;;;;;;;;
2022/05/09 15:34:56;;;;;;;3.67;2.55;;;23.30;58.40;;;;;;4995287;28;20050;-86
2022/05/09 15:37:45;;;;;;;5.03;2.90;;;23.30;58.40;;;;;;4977406;28;20426;-86
2022/05/09 15:43:25;;;;;;;4.43;2.85;;;23.30;58.10;;;;;;4995449;28;20483;-86
2022/05/09 15:46:19;;;;;;;5.03;2.97;;;23.30;58.40;;;;;;4978447;28;20581;-85
2022/05/09 15:48:52;;;;;;;3.50;2.80;;;23.30;58.40;;;;;;4981694;28;20026;-85